Observations for DECIMOMANNU IT-AFB, Italy (LIED)

LIED 201855Z 16003KT 9999 FEW020 10/09 Q1024 RMK FEW VIS MIN 9999 WIND THR35 /////KT WIND THR17 /////KT BLU 
LIED 201755Z 16004KT 9999 FEW020 SCT050 12/11 Q1024 RMK BKN VIS MIN 9999 WIND THR35 /////KT WIND THR17 /////KT BLU  
LIED 201655Z 16008KT 9999 FEW020 SCT050 13/11 Q1023 RMK BKN VIS MIN 9999 WIND THR35 /////KT WIND THR17 /////KT BLU  
LIED 201555Z 16008KT 9999 FEW020 SCT050 15/12 Q1023 RMK BKN VIS MIN 9999 WIND THR35 /////KT WIND THR17 /////KT BLU  
LIED 201455Z 15010KT 9999 FEW020 SCT050 16/12 Q1023 RMK SCT VIS MIN 9999 WIND THR35 /////KT WIND THR17 /////KT BLU  
LIED 201355Z 15008KT 9999 FEW020 SCT050 17/11 Q1023 RMK SCT VIS MIN 9999 WIND THR35 /////KT WIND THR17 /////KT BLU  
LIED 201255Z 15010KT 9999 SCT020 17/10 Q1023 RMK SCT SCT200 VIS MIN 9999 WIND THR35 /////KT WIND THR17 /////KT BLU  
LIED 201155Z 16008KT 9999 SCT020 17/08 Q1023 RMK SCT SCT200 VIS MIN 9999 WIND THR35 /////KT WIND THR17 /////KT BLU  
LIED 201055Z 15008KT 9999 SCT020 16/12 Q1023 RMK SCT SCT200 VIS MIN 9999 WIND THR35 /////KT WIND THR17 /////KT BLU  
LIED 200955Z 15006KT 9999 FEW020 15/12 Q1023 RMK SCT SCT200 VIS MIN 9999 WIND THR35 /////KT WIND THR17 /////KT BLU  
LIED 200855Z 32004KT 9999 FEW018 12/10 Q1023 RMK SCT SCT200 VIS MIN 9999 WIND THR35 /////KT WIND THR17 /////KT BLU  
LIED 200755Z 35003KT 9999 FEW018 08/06 Q1023 RMK SCT SCT200 VIS MIN 9999 WIND THR35 /////KT WIND THR17 /////KT BLU  
LIED 200655Z 02004KT 9999 FEW010 06/05 Q1022 RMK SCT SCT200 VIS MIN 9999 WIND THR35 /////KT WIND THR17 /////KT BLU  
LIED 200555Z 36004KT 9999 FEW010 05/03 Q1021 RMK SCT SCT200 VIS MIN 9999 WIND THR35 /////KT WIND THR17 /////KT BLU  
LIED 200455Z 35003KT 9999 FEW010 04/02 Q1021 RMK FEW VIS MIN 9999 WIND THR35 /////KT WIND THR17 /////KT BLU 
LIED 200355Z 34005KT 9999 FEW010 05/04 Q1021 RMK FEW VIS MIN 9999 WIND THR35 /////KT WIND THR17 /////KT BLU 
LIED 200255Z 32002KT 9999 FEW010 05/04 Q1021 RMK FEW VIS MIN 9999 WIND THR35 /////KT WIND THR17 /////KT BLU 
LIED 200155Z 33004KT 9999 FEW010 SCT016 05/04 Q1021 RMK SCT VIS MIN 9999 WIND THR35 /////KT WIND THR17 /////KT BLU  
LIED 200055Z 32004KT 9999 FEW010 SCT020 05/04 Q1021 RMK BKN VIS MIN 9999 WIND THR35 /////KT WIND THR17 /////KT BLU  
LIED 192355Z 02002KT 9999 FEW010 05/04 Q1021 RMK SCT SCT200 VIS MIN 9999 WIND THR35 /////KT WIND THR17 /////KT BLU  
LIED 192255Z 05003KT 9999 FEW012 06/05 Q1021 RMK SCT SCT200 VIS MIN 9999 WIND THR35 /////KT WIND THR17 /////KT BLU  
LIED 192155Z 06003KT 9999 FEW012 06/05 Q1021 RMK SCT SCT200 VIS MIN 9999 WIND THR35 /////KT WIND THR17 /////KT BLU  
LIED 192055Z 36003KT 9999 FEW012 07/06 Q1021 RMK SCT SCT200 VIS MIN 9999 WIND THR35 /////KT WIND THR17 /////KT BLU  
LIED 191955Z 03002KT 9999 FEW012 10/08 Q1021 RMK BKN BKN200 VIS MIN 9999 WIND THR35 /////KT WIND THR17 /////KT BLU